createdAt,value
2022-11-27T00:00:59.113Z,102522.66
2022-11-27T00:03:29.112Z,102524.44
2022-11-27T00:05:59.582Z,102512.88
2022-11-27T00:08:27.492Z,102514.69
2022-11-27T00:10:55.417Z,102507.53
2022-11-27T00:13:23.452Z,102510.28
2022-11-27T00:15:51.802Z,102504.06
2022-11-27T00:18:19.805Z,102500.47
2022-11-27T00:20:49.183Z,102500.47
2022-11-27T00:23:17.169Z,102496.44
2022-11-27T00:25:51.805Z,102488.41
2022-11-27T00:28:19.533Z,102475.94
2022-11-27T00:30:47.944Z,102486.63
2022-11-27T00:33:15.908Z,102483.94
2022-11-27T00:35:46.138Z,102482.13
2022-11-27T00:38:15.460Z,102476.78
2022-11-27T00:40:43.633Z,102477.69
2022-11-27T00:43:11.563Z,102472.34
2022-11-27T00:45:39.601Z,102467.88
2022-11-27T00:48:07.564Z,102464.28
2022-11-27T00:50:35.521Z,102465.22
2022-11-27T00:53:05.538Z,102462.53
2022-11-27T00:55:34.771Z,102462.56
2022-11-27T00:58:02.754Z,102463.50
2022-11-27T01:00:30.624Z,102467.03
2022-11-27T01:02:58.530Z,102469.78
2022-11-27T01:05:26.546Z,102475.16
2022-11-27T01:07:54.600Z,102461.75
2022-11-27T01:10:22.727Z,102458.25
2022-11-27T01:12:52.007Z,102458.25
2022-11-27T01:15:19.927Z,102453.84
2022-11-27T01:17:47.995Z,102452.03
2022-11-27T01:20:18.104Z,102450.28
2022-11-27T01:22:45.988Z,102455.63
2022-11-27T01:25:13.983Z,102449.41
2022-11-27T01:27:44.748Z,102447.63
2022-11-27T01:30:15.503Z,102453.94
2022-11-27T01:32:43.435Z,102452.13
2022-11-27T01:35:11.380Z,102438.75
2022-11-27T01:37:40.475Z,102434.31
2022-11-27T01:40:09.894Z,102431.72
2022-11-27T01:42:37.806Z,102429.03
2022-11-27T01:45:06.335Z,102430.88
2022-11-27T01:47:44.830Z,102436.16
2022-11-27T01:50:22.424Z,102428.28
2022-11-27T01:52:54.330Z,102426.47
2022-11-27T01:55:28.225Z,102416.63
2022-11-27T01:58:00.036Z,102428.28
2022-11-27T02:00:28.691Z,102425.63
2022-11-27T02:02:58.127Z,102414.91
2022-11-27T02:05:28.587Z,102397.91
2022-11-27T02:07:58.597Z,102389.94
2022-11-27T02:10:39.298Z,102381.03
2022-11-27T02:13:14.391Z,102365.91
2022-11-27T02:15:47.949Z,102369.47
2022-11-27T02:18:23.736Z,102358.78
2022-11-27T02:20:56.443Z,102350.75
2022-11-27T02:23:53.274Z,102344.59
2022-11-27T02:27:06.272Z,102344.59
2022-11-27T02:29:36.350Z,102343.66
2022-11-27T02:32:11.407Z,102346.34
2022-11-27T02:34:47.704Z,102332.16
2022-11-27T02:37:23.909Z,102332.19
2022-11-27T02:39:58.095Z,102325.94
2022-11-27T02:42:31.042Z,102323.28
2022-11-27T02:45:04.960Z,102317.06
2022-11-27T02:47:33.805Z,102317.16
2022-11-27T02:50:03.500Z,102318.88
2022-11-27T02:52:33.918Z,102318.91
2022-11-27T02:55:06.852Z,102310.97
2022-11-27T02:57:38.353Z,102316.31
2022-11-27T03:00:10.393Z,102318.19
2022-11-27T03:02:42.516Z,102332.38
2022-11-27T03:05:16.500Z,102333.31
2022-11-27T03:07:50.561Z,102325.28
2022-11-27T03:10:22.888Z,102328.91
2022-11-27T03:12:51.155Z,102321.75
2022-11-27T03:15:21.102Z,102327.13
2022-11-27T03:17:56.321Z,102320.88
2022-11-27T03:20:28.917Z,102323.59
2022-11-27T03:22:58.093Z,102320.03
2022-11-27T03:25:26.293Z,102314.69
2022-11-27T03:27:59.377Z,102301.31
2022-11-27T03:30:28.926Z,102298.63
2022-11-27T03:32:56.991Z,102295.09
2022-11-27T03:35:28.056Z,102295.16
2022-11-27T03:37:56.752Z,102297.84
2022-11-27T03:40:30.377Z,102294.25
2022-11-27T03:43:04.860Z,102293.34
2022-11-27T03:45:39.652Z,102289.81
2022-11-27T03:48:22.998Z,102293.38
2022-11-27T03:51:03.908Z,102291.66
2022-11-27T03:53:39.266Z,102290.78
2022-11-27T03:56:12.482Z,102299.69
2022-11-27T03:58:46.094Z,102296.13
2022-11-27T04:01:19.638Z,102281.88
2022-11-27T04:03:47.634Z,102278.34
2022-11-27T04:06:15.644Z,102277.44
2022-11-27T04:08:47.499Z,102281.91
2022-11-27T04:11:15.684Z,102284.59
2022-11-27T04:13:43.573Z,102266.72
2022-11-27T04:16:11.784Z,102263.19
2022-11-27T04:18:41.196Z,102270.34
2022-11-27T04:21:10.287Z,102266.72
2022-11-27T04:23:38.771Z,102268.53
2022-11-27T04:26:06.968Z,102273.88
2022-11-27T04:28:34.985Z,102263.25
2022-11-27T04:31:03.267Z,102270.47
2022-11-27T04:33:31.600Z,102267.78
2022-11-27T04:36:01.087Z,102278.44
2022-11-27T04:38:29.284Z,102280.25
2022-11-27T04:40:57.925Z,102272.22
2022-11-27T04:43:25.956Z,102274.03
2022-11-27T04:45:53.868Z,102274.94
2022-11-27T04:48:21.867Z,102277.59
2022-11-27T04:50:50.073Z,102282.97
2022-11-27T04:53:19.411Z,102278.50
2022-11-27T04:55:47.356Z,102274.94
2022-11-27T04:58:15.256Z,102273.22
2022-11-27T05:00:43.200Z,102270.47
2022-11-27T05:03:12.130Z,102268.72
2022-11-27T05:05:40.120Z,102253.59
2022-11-27T05:08:08.048Z,102255.41
2022-11-27T05:10:37.410Z,102252.66
2022-11-27T05:13:05.615Z,102256.28
2022-11-27T05:15:33.497Z,102246.50
2022-11-27T05:18:01.407Z,102250.97
2022-11-27T05:20:29.307Z,102249.22
2022-11-27T05:22:57.230Z,102241.19
2022-11-27T05:25:25.180Z,102235.84
2022-11-27T05:27:54.431Z,102231.38
2022-11-27T05:30:22.370Z,102225.13
2022-11-27T05:32:50.379Z,102222.53
2022-11-27T05:35:18.421Z,102217.19
2022-11-27T05:37:46.382Z,102214.50
2022-11-27T05:40:14.839Z,102210.09
2022-11-27T05:42:45.573Z,102205.59
2022-11-27T05:45:14.924Z,102211.88
2022-11-27T05:47:42.963Z,102210.97
2022-11-27T05:50:11.192Z,102202.97
2022-11-27T05:52:39.158Z,102209.19
2022-11-27T05:55:08.183Z,102212.81
2022-11-27T05:57:36.174Z,102201.16
2022-11-27T06:00:06.056Z,102201.25
2022-11-27T06:02:35.430Z,102203.91
2022-11-27T06:05:03.468Z,102204.84
2022-11-27T06:07:32.283Z,102201.25
2022-11-27T06:10:00.268Z,102202.19
2022-11-27T06:12:28.210Z,102195.03
2022-11-27T06:14:56.123Z,102195.03
2022-11-27T06:17:24.076Z,102196.81
2022-11-27T06:19:53.369Z,102186.16
2022-11-27T06:22:21.317Z,102187.97
2022-11-27T06:24:50.346Z,102185.28
2022-11-27T06:27:18.314Z,102175.53
2022-11-27T06:29:46.212Z,102184.44
2022-11-27T06:32:14.253Z,102173.72
2022-11-27T06:34:42.439Z,102172.84
2022-11-27T06:37:13.403Z,102160.41
2022-11-27T06:39:41.652Z,102165.66
2022-11-27T06:42:10.052Z,102156.88
2022-11-27T06:44:38.055Z,102163.09
2022-11-27T06:47:06.412Z,102161.28
2022-11-27T06:49:34.365Z,102158.66
2022-11-27T06:52:02.493Z,102156.91
2022-11-27T06:54:31.847Z,102153.28
2022-11-27T06:56:59.786Z,102152.44
2022-11-27T06:59:27.776Z,102156.91
2022-11-27T07:01:55.765Z,102154.31
2022-11-27T07:04:24.045Z,102150.69
2022-11-27T07:06:51.950Z,102159.59
2022-11-27T07:09:19.894Z,102157.78
2022-11-27T07:11:49.196Z,102149.81
2022-11-27T07:14:17.145Z,102148.97
2022-11-27T07:16:45.113Z,102157.94
2022-11-27T07:19:13.641Z,102148.09
2022-11-27T07:21:41.999Z,102140.97
2022-11-27T07:24:10.060Z,102136.53
2022-11-27T07:26:38.013Z,102137.44
2022-11-27T07:29:07.269Z,102129.41
2022-11-27T07:31:35.307Z,102124.91
2022-11-27T07:34:05.813Z,102117.84
2022-11-27T07:36:36.270Z,102127.66
2022-11-27T07:39:04.153Z,102116.09
2022-11-27T07:41:34.060Z,102124.19
2022-11-27T07:44:02.368Z,102126.81
2022-11-27T07:46:31.662Z,102132.16
2022-11-27T07:49:00.655Z,102132.16
2022-11-27T07:51:28.916Z,102122.41
2022-11-27T07:53:56.901Z,102118.78
2022-11-27T07:56:24.879Z,102111.63
2022-11-27T07:58:52.825Z,102120.50
2022-11-27T08:01:21.749Z,102110.75
2022-11-27T08:03:51.817Z,102102.66
2022-11-27T08:06:21.329Z,102093.75
2022-11-27T08:08:50.261Z,102078.63
2022-11-27T08:11:20.531Z,102078.63
2022-11-27T08:13:48.737Z,102081.25
2022-11-27T08:16:17.497Z,102080.38
2022-11-27T08:18:45.442Z,102081.25
2022-11-27T08:21:14.980Z,102071.47
2022-11-27T08:23:45.163Z,102079.44
2022-11-27T08:26:14.244Z,102076.75
2022-11-27T08:28:42.912Z,102082.09
2022-11-27T08:31:16.040Z,102078.53
2022-11-27T08:33:46.212Z,102073.16
2022-11-27T08:36:18.435Z,102081.13
2022-11-27T08:38:46.796Z,102070.41
2022-11-27T08:41:16.973Z,102073.09
2022-11-27T08:43:47.132Z,102071.28
2022-11-27T08:46:15.175Z,102071.28
2022-11-27T08:48:43.523Z,102073.16
2022-11-27T08:51:13.547Z,102074.81
2022-11-27T08:53:45.537Z,102067.66
2022-11-27T08:56:17.734Z,102063.13
2022-11-27T08:58:46.457Z,102061.41
2022-11-27T09:01:17.554Z,102063.13
2022-11-27T09:03:48.076Z,102053.50
2022-11-27T09:06:18.556Z,102044.72
2022-11-27T09:08:48.184Z,102048.25
2022-11-27T09:11:17.741Z,102052.66
2022-11-27T09:13:46.570Z,102045.59
2022-11-27T09:16:16.533Z,102049.13
2022-11-27T09:18:45.815Z,102048.22
2022-11-27T09:21:15.894Z,102042.91
2022-11-27T09:23:43.916Z,102045.53
2022-11-27T09:26:16.545Z,102041.97
2022-11-27T09:28:45.521Z,102051.75
2022-11-27T09:31:15.380Z,102050.75
2022-11-27T09:33:44.301Z,102044.53
2022-11-27T09:36:13.693Z,102048.13
2022-11-27T09:38:42.475Z,102038.31
2022-11-27T09:41:32.971Z,102039.16
2022-11-27T09:44:06.720Z,102040.03
2022-11-27T09:46:40.030Z,102048.03
2022-11-27T09:49:10.929Z,102051.59
2022-11-27T09:51:43.397Z,102042.78
2022-11-27T09:54:18.698Z,102040.91
2022-11-27T09:56:52.973Z,102041.84
2022-11-27T09:59:23.847Z,102042.66
2022-11-27T10:01:52.400Z,102040.03
2022-11-27T10:04:22.130Z,102041.81
2022-11-27T10:07:05.520Z,102031.13
2022-11-27T10:09:48.074Z,102030.19
2022-11-27T10:12:29.781Z,102020.44
2022-11-27T10:15:06.438Z,102021.31
2022-11-27T10:17:40.905Z,102014.13
2022-11-27T10:20:20.077Z,102010.56
2022-11-27T10:22:55.030Z,102006.13
2022-11-27T10:25:29.542Z,102014.13
2022-11-27T10:28:13.281Z,102003.50
2022-11-27T10:30:48.007Z,101999.03
2022-11-27T10:33:21.335Z,101993.69
2022-11-27T10:35:50.783Z,101985.66
2022-11-27T10:38:22.026Z,101992.81
2022-11-27T10:40:58.086Z,101984.78
2022-11-27T10:43:27.473Z,101984.72
2022-11-27T10:45:59.036Z,101969.59
2022-11-27T10:48:28.520Z,101967.88
2022-11-27T10:50:56.478Z,101969.66
2022-11-27T10:53:28.205Z,101958.97
2022-11-27T10:56:07.525Z,101956.34
2022-11-27T10:58:43.820Z,101948.31
2022-11-27T11:01:16.588Z,101943.84
2022-11-27T11:03:44.733Z,101947.41
2022-11-27T11:06:21.771Z,101940.28
2022-11-27T11:09:03.727Z,101940.28
2022-11-27T11:11:32.038Z,101935.88
2022-11-27T11:14:01.415Z,101937.59
2022-11-27T11:16:35.304Z,101934.94
2022-11-27T11:19:06.201Z,101932.25
2022-11-27T11:21:39.089Z,101922.44
2022-11-27T11:24:13.563Z,101922.44
2022-11-27T11:26:46.692Z,101914.59
2022-11-27T11:29:29.490Z,101918.97
2022-11-27T11:31:59.429Z,101907.38
2022-11-27T11:34:29.720Z,101905.56
2022-11-27T11:37:03.129Z,101902.03
2022-11-27T11:39:33.511Z,101901.16
2022-11-27T11:42:01.513Z,101898.53
2022-11-27T11:44:37.386Z,101894.97
2022-11-27T11:47:05.812Z,101884.25
2022-11-27T11:49:37.078Z,101885.97
2022-11-27T11:52:22.376Z,101888.16
2022-11-27T11:55:00.975Z,101882.75
2022-11-27T11:58:16.007Z,101879.22
2022-11-27T12:01:25.017Z,101874.63
2022-11-27T12:03:52.390Z,101877.25
2022-11-27T12:06:37.586Z,101874.50
2022-11-27T12:09:35.189Z,101873.56
2022-11-27T12:12:14.931Z,101861.22
2022-11-27T12:14:51.497Z,101851.72
2022-11-27T12:17:36.698Z,101846.22
2022-11-27T12:20:15.695Z,101841.88
2022-11-27T12:23:19.391Z,101832.84
2022-11-27T12:25:58.001Z,101830.91
2022-11-27T12:28:45.952Z,101817.41
2022-11-27T12:31:25.108Z,101813.75
2022-11-27T12:34:02.660Z,101802.00
2022-11-27T12:36:49.432Z,101796.53
2022-11-27T12:39:25.657Z,101792.00
2022-11-27T12:42:02.490Z,101782.94
2022-11-27T12:44:38.518Z,101773.09
2022-11-27T12:47:11.920Z,101770.38
2022-11-27T12:49:45.627Z,101761.41
2022-11-27T12:52:18.349Z,101764.00
2022-11-27T12:54:52.083Z,101764.00
2022-11-27T12:57:25.095Z,101761.28
2022-11-27T12:59:58.517Z,101767.50
2022-11-27T13:02:32.600Z,101759.47
2022-11-27T13:05:07.251Z,101761.19
2022-11-27T13:07:44.736Z,101742.47
2022-11-27T13:10:28.317Z,101730.91
2022-11-27T13:13:03.752Z,101733.56
2022-11-27T13:15:37.397Z,101729.94
2022-11-27T13:18:17.038Z,101735.19
2022-11-27T13:20:52.368Z,101732.53
2022-11-27T13:23:21.124Z,101731.56
2022-11-27T13:25:53.734Z,101730.66
2022-11-27T13:28:27.699Z,101736.00
2022-11-27T13:30:59.982Z,101729.72
2022-11-27T13:33:38.563Z,101728.84
2022-11-27T13:36:18.718Z,101721.38
2022-11-27T13:38:47.677Z,101727.72
2022-11-27T13:41:22.408Z,101716.50
2022-11-27T13:43:51.436Z,101701.22
2022-11-27T13:46:25.844Z,101695.75
2022-11-27T13:48:57.574Z,101689.25
2022-11-27T13:51:29.418Z,101686.38
2022-11-27T13:54:12.921Z,101695.19
2022-11-27T13:56:41.691Z,101691.44
2022-11-27T13:59:20.803Z,101687.75
2022-11-27T14:01:59.935Z,101684.88
2022-11-27T14:04:28.861Z,101674.88
2022-11-27T14:07:03.590Z,101664.03
2022-11-27T14:09:39.144Z,101666.56
2022-11-27T14:12:25.702Z,101667.22
2022-11-27T14:15:07.620Z,101662.72
2022-11-27T14:17:38.938Z,101656.28
2022-11-27T14:20:22.208Z,101654.41
2022-11-27T14:23:11.260Z,101653.38
2022-11-27T14:25:41.656Z,101649.78
2022-11-27T14:28:16.342Z,101647.00
2022-11-27T14:30:49.236Z,101637.31
2022-11-27T14:33:22.555Z,101630.22
2022-11-27T14:35:51.365Z,101628.34
2022-11-27T14:38:21.344Z,101630.22
2022-11-27T14:40:50.342Z,101634.56
2022-11-27T14:43:20.014Z,101635.44
2022-11-27T14:45:51.438Z,101622.81
2022-11-27T14:48:24.720Z,101624.50
2022-11-27T14:50:55.446Z,101617.31
2022-11-27T14:53:28.657Z,101628.84
2022-11-27T14:55:59.422Z,101610.97
2022-11-27T14:58:29.811Z,101611.81
2022-11-27T15:01:00.538Z,101609.16
2022-11-27T15:03:28.881Z,101601.97
2022-11-27T15:05:59.679Z,101587.63
2022-11-27T15:08:30.887Z,101589.38
2022-11-27T15:11:00.715Z,101589.31
2022-11-27T15:13:32.163Z,101605.28
2022-11-27T15:16:04.523Z,101595.38
2022-11-27T15:18:37.204Z,101592.69
2022-11-27T15:21:11.737Z,101581.97
2022-11-27T15:23:45.984Z,101575.66
2022-11-27T15:26:20.021Z,101569.41
2022-11-27T15:28:54.141Z,101571.13
2022-11-27T15:31:31.275Z,101561.28
2022-11-27T15:34:05.608Z,101568.34
2022-11-27T15:36:38.418Z,101564.72
2022-11-27T15:39:18.237Z,101558.50
2022-11-27T15:41:55.243Z,101564.66
2022-11-27T15:44:24.172Z,101566.28
2022-11-27T15:46:55.897Z,101566.28
2022-11-27T15:49:24.068Z,101571.59
2022-11-27T15:51:52.148Z,101565.28
2022-11-27T15:54:21.462Z,101568.75
2022-11-27T15:56:49.768Z,101556.28
2022-11-27T15:59:20.505Z,101547.34
2022-11-27T16:01:49.474Z,101541.03
2022-11-27T16:04:17.840Z,101531.16
2022-11-27T16:06:48.163Z,101519.50
2022-11-27T16:09:16.241Z,101512.25
2022-11-27T16:11:45.668Z,101518.47
2022-11-27T16:14:13.817Z,101518.47
2022-11-27T16:16:42.053Z,101514.84
2022-11-27T16:19:12.315Z,101517.47
2022-11-27T16:21:40.329Z,101519.03
2022-11-27T16:24:11.818Z,101505.53
2022-11-27T16:26:40.563Z,101508.22
2022-11-27T16:29:11.142Z,101510.91
2022-11-27T16:31:39.169Z,101505.38
2022-11-27T16:34:07.181Z,101506.25
2022-11-27T16:36:35.344Z,101506.34
2022-11-27T16:39:03.331Z,101501.75
2022-11-27T16:41:31.321Z,101498.22
2022-11-27T16:43:59.268Z,101500.03
2022-11-27T16:46:30.301Z,101489.31
2022-11-27T16:49:00.843Z,101496.34
2022-11-27T16:51:32.019Z,101481.19
2022-11-27T16:54:01.720Z,101474.97
2022-11-27T16:56:31.306Z,101473.16
2022-11-27T16:59:03.182Z,101474.84
2022-11-27T17:01:34.396Z,101466.88
2022-11-27T17:04:03.710Z,101462.38
2022-11-27T17:06:33.066Z,101455.22
2022-11-27T17:09:02.352Z,101448.03
2022-11-27T17:11:33.743Z,101448.03
2022-11-27T17:14:03.218Z,101440.00
2022-11-27T17:16:32.984Z,101433.78
2022-11-27T17:19:01.063Z,101433.69
2022-11-27T17:21:30.823Z,101421.25
2022-11-27T17:24:00.824Z,101417.63
2022-11-27T17:26:30.775Z,101410.53
2022-11-27T17:28:59.569Z,101402.50
2022-11-27T17:31:32.616Z,101411.47
2022-11-27T17:34:02.334Z,101406.91
2022-11-27T17:36:36.478Z,101408.63
2022-11-27T17:39:06.341Z,101406.91
2022-11-27T17:41:34.525Z,101413.13
2022-11-27T17:44:05.182Z,101408.63
2022-11-27T17:46:34.359Z,101407.75
2022-11-27T17:49:05.411Z,101403.28
2022-11-27T17:51:35.294Z,101410.44
2022-11-27T17:54:05.494Z,101408.63
2022-11-27T17:56:34.487Z,101409.41
2022-11-27T17:59:02.612Z,101406.75
2022-11-27T18:01:33.686Z,101403.97
2022-11-27T18:04:04.170Z,101409.53
2022-11-27T18:06:33.415Z,101403.38
2022-11-27T18:09:01.706Z,101399.81
2022-11-27T18:11:33.760Z,101403.44
2022-11-27T18:14:02.611Z,101407.00
2022-11-27T18:16:33.197Z,101398.97
2022-11-27T18:19:05.733Z,101392.72
2022-11-27T18:21:33.988Z,101395.31
2022-11-27T18:29:39.398Z,101380.72
2022-11-27T18:32:07.658Z,101374.34
2022-11-27T18:34:37.144Z,101373.38
2022-11-27T18:37:05.827Z,101366.22
2022-11-27T18:39:34.258Z,101354.72
2022-11-27T18:42:03.286Z,101361.78
2022-11-27T18:44:31.353Z,101359.97
2022-11-27T18:46:59.555Z,101360.88
2022-11-27T18:49:27.579Z,101356.44
2022-11-27T18:51:56.891Z,101345.72
2022-11-27T18:54:25.292Z,101347.47
2022-11-27T18:56:53.197Z,101340.28
2022-11-27T18:59:21.198Z,101333.13
2022-11-27T19:01:51.663Z,101328.63
2022-11-27T19:04:19.715Z,101320.41
2022-11-27T19:06:47.899Z,101323.09
2022-11-27T19:09:18.085Z,101319.44
2022-11-27T19:11:46.036Z,101320.31
2022-11-27T19:14:14.201Z,101319.34
2022-11-27T19:16:48.657Z,101313.22
2022-11-27T19:22:07.542Z,101305.03
2022-11-27T19:24:38.211Z,101298.88
2022-11-27T19:27:06.324Z,101302.34
2022-11-27T19:29:34.352Z,101302.13
2022-11-27T19:32:02.951Z,101301.09
2022-11-27T19:34:30.971Z,101299.28
2022-11-27T19:36:59.046Z,101298.31
2022-11-27T19:39:27.921Z,101300.84
2022-11-27T19:41:58.241Z,101288.97
2022-11-27T19:44:26.232Z,101294.28
2022-11-27T19:46:54.834Z,101295.13
2022-11-27T19:49:23.694Z,101286.13
2022-11-27T19:51:51.580Z,101291.50
2022-11-27T19:54:20.563Z,101286.13
2022-11-27T19:56:48.460Z,101279.81
2022-11-27T19:59:21.515Z,101280.66
2022-11-27T20:01:53.609Z,101269.81
2022-11-27T20:04:21.725Z,101264.44
2022-11-27T20:06:52.509Z,101263.47
2022-11-27T20:09:21.019Z,101262.56
2022-11-27T20:11:49.049Z,101245.50
2022-11-27T20:14:20.623Z,101246.28
2022-11-27T20:16:48.685Z,101238.22
2022-11-27T20:19:17.098Z,101228.41
2022-11-27T20:21:45.201Z,101226.59
2022-11-27T20:24:13.220Z,101222.06
2022-11-27T20:26:43.008Z,101218.53
2022-11-27T20:29:12.050Z,101213.19
2022-11-27T20:31:44.610Z,101210.41
2022-11-27T20:34:18.720Z,101207.81
2022-11-27T20:36:46.816Z,101204.28
2022-11-27T20:39:20.563Z,101202.47
2022-11-27T20:41:50.847Z,101207.81
2022-11-27T20:44:19.186Z,101199.78
2022-11-27T20:46:52.070Z,101191.81
2022-11-27T20:49:20.687Z,101196.31
2022-11-27T20:51:50.576Z,101188.28
2022-11-27T20:54:19.036Z,101186.56
2022-11-27T20:56:47.659Z,101186.56
2022-11-27T20:59:15.677Z,101178.50
2022-11-27T21:01:43.712Z,101177.72
2022-11-27T21:04:20.654Z,101177.72
2022-11-27T21:06:48.974Z,101181.31
2022-11-27T21:09:17.905Z,101169.63
2022-11-27T21:11:47.390Z,101166.94
2022-11-27T21:14:16.714Z,101166.94
2022-11-27T21:16:48.442Z,101166.94
2022-11-27T21:19:20.896Z,101166.06
2022-11-27T21:21:49.835Z,101166.06
2022-11-27T21:24:18.619Z,101168.75
2022-11-27T21:26:47.437Z,101163.28
2022-11-27T21:29:15.953Z,101150.84
2022-11-27T21:31:47.022Z,101147.22
2022-11-27T21:34:16.979Z,101141.00
2022-11-27T21:36:45.128Z,101134.66
2022-11-27T21:39:19.998Z,101132.09
2022-11-27T21:41:49.406Z,101128.44
2022-11-27T21:44:18.119Z,101125.66
2022-11-27T21:46:46.439Z,101121.28
2022-11-27T21:49:16.672Z,101114.19
2022-11-27T21:51:46.180Z,101117.63
2022-11-27T21:54:15.947Z,101112.25
2022-11-27T21:56:43.972Z,101106.16
2022-11-27T21:59:15.014Z,101108.66
2022-11-27T22:01:45.221Z,101106.72
2022-11-27T22:04:13.571Z,101105.75
2022-11-27T22:06:43.153Z,101101.25
2022-11-27T22:09:15.595Z,101095.03
2022-11-27T22:11:44.895Z,101089.69
2022-11-27T22:14:14.106Z,101077.16
2022-11-27T22:16:46.687Z,101077.94
2022-11-27T22:19:16.457Z,101078.00
2022-11-27T22:21:45.295Z,101075.31
2022-11-27T22:24:19.359Z,101085.06
2022-11-27T22:26:48.482Z,101064.78
2022-11-27T22:29:16.756Z,101064.72
2022-11-27T22:31:44.755Z,101063.84
2022-11-27T22:34:12.723Z,101062.97
2022-11-27T22:36:40.667Z,101055.88
2022-11-27T22:39:09.656Z,101048.72
2022-11-27T22:41:40.646Z,101038.00
2022-11-27T22:44:09.433Z,101034.16
2022-11-27T22:46:40.743Z,101029.88
2022-11-27T22:49:09.278Z,101023.66
2022-11-27T22:51:38.089Z,101020.97
2022-11-27T22:54:08.203Z,101029.03
2022-11-27T22:56:36.485Z,101038.00
2022-11-27T22:59:30.958Z,101017.53
2022-11-27T23:01:54.989Z,101016.66
2022-11-27T23:04:22.923Z,101020.19
2022-11-27T23:06:50.845Z,101014.84
2022-11-27T23:09:19.353Z,101015.81
2022-11-27T23:11:48.433Z,101010.44
2022-11-27T23:14:18.451Z,101015.03
2022-11-27T23:16:46.581Z,101007.94
2022-11-27T23:19:14.603Z,101002.59
2022-11-27T23:21:42.865Z,101007.94
2022-11-27T23:24:13.288Z,101009.66
2022-11-27T23:26:41.327Z,101003.44
2022-11-27T23:29:09.563Z,100996.38
2022-11-27T23:31:39.700Z,101002.59
2022-11-27T23:34:10.713Z,100995.53
2022-11-27T23:36:38.721Z,100993.81
2022-11-27T23:39:08.854Z,100987.56
2022-11-27T23:41:36.854Z,100981.34
2022-11-27T23:44:04.824Z,100983.09
2022-11-27T23:46:32.991Z,100976.09
2022-11-27T23:49:02.355Z,100979.63
2022-11-27T23:51:32.526Z,100978.78
2022-11-27T23:54:01.408Z,100969.88
2022-11-27T23:56:31.772Z,100970.81
2022-11-27T23:59:00.625Z,100968.13
